Cape Beale — V7HF8 — position and weather

sailwx.info

Track history (hours):
 
Tides and Currents Weather Stations Pressure Air Temp Water Temp Dewpoint Dewpoint Depression Visibility Wind Speed Wind Dir Waves Ship Positions

Cape Beale

Last reported at 2017-Nov-23 16:58 UTC. Time now 2017-Nov-23 17:06 UTC.
Position N 36°00' W 005°12'.

Length 175 m; draft 0.96 m.

Type: Ship. MMSI: 538002222.

Date/timePositionNaut miles runAvg speedWind from/ knotsBaromVisibWave heightAir tempDewpointWater temp
2017-Nov-23 16:58N 36°00' W 005°12'715.2
2017-Nov-23 16:30N 35°59' W 005°21'713.9
2017-Nov-23 16:00N 35°57' W 005°29'6613.0
2017-Nov-23 10:56N 35°55' W 006°50'713.8
2017-Nov-23 10:25N 35°57' W 006°58'613.7
2017-Nov-23 10:00N 35°58' W 007°05'2113.6
2017-Nov-23 08:28N 36°04' W 007°30'713.6
2017-Nov-23 07:59N 36°06' W 007°38'713.7
2017-Nov-23 07:30N 36°08' W 007°45'713.9
2017-Nov-23 07:00N 36°10' W 007°54'1413.8
2017-Nov-23 06:01N 36°14' W 008°10'113.7
2017-Nov-23 05:57N 36°14' W 008°11'1813.9
2017-Nov-23 04:41N 36°19' W 008°32'313.8
2017-Nov-23 04:30N 36°20' W 008°35'913.7
2017-Nov-23 03:49N 36°22' W 008°46'413.9
2017-Nov-23 03:30N 36°23' W 008°51'713.8
2017-Nov-23 03:00N 36°25' W 008°60'713.4
2017-Nov-23 02:29N 36°27' W 009°08'713.2
2017-Nov-23 01:59N 36°29' W 009°16'1012.9
2017-Nov-23 01:15N 36°34' W 009°26'313.2
2017-Nov-23 01:00N 36°37' W 009°28'713.0
2017-Nov-23 00:29N 36°42' W 009°34'1212.6
2017-Nov-22 23:30N 36°53' W 009°40'1013.1
2017-Nov-22 22:45N 37°03' W 009°42'613.0
2017-Nov-22 22:17N 37°07' W 009°37'413.0
2017-Nov-22 22:00N 37°10' W 009°34'813.3
2017-Nov-22 21:23N 37°17' W 009°28'913.4
2017-Nov-22 20:44N 37°23' W 009°20'312.9
2017-Nov-22 20:30N 37°25' W 009°18'612.8
2017-Nov-22 20:00N 37°30' W 009°13'713.6
2017-Nov-22 19:30N 37°36' W 009°07'  
2017-Nov-15 06:31N 28°36' W 014°47'013.4
2017-Nov-15 06:30N 28°36' W 014°47'713.4
2017-Nov-15 06:00N 28°30' W 014°48'713.0
2017-Nov-15 05:30N 28°23' W 014°48'612.4
2017-Nov-15 05:00N 28°17' W 014°51'612.8
2017-Nov-15 04:30N 28°11' W 014°53'612.9
2017-Nov-15 04:00N 28°05' W 014°55'612.8
2017-Nov-15 03:30N 27°59' W 014°58'612.9
2017-Nov-15 03:00N 27°53' W 015°00'612.8
2017-Nov-15 02:30N 27°47' W 015°02'613.0
2017-Nov-15 02:00N 27°41' W 015°05'713.0
2017-Nov-15 01:29N 27°34' W 015°07'  
Track history (hours):
 
Tides and Currents Weather Stations Pressure Air Temp Water Temp Dewpoint Dewpoint Depression Visibility Wind Speed Wind Dir Waves Ship Positions

Cape Beale

Last reported at 2017-Nov-23 16:58 UTC. Time now 2017-Nov-23 17:06 UTC.
Position N 36°00' W 005°12'.

Length 175 m; draft 0.96 m.

Type: Ship. MMSI: 538002222.

Date/timePositionNaut miles runAvg speedWind from/ knotsBaromVisibWave heightAir tempDewpointWater temp
2017-Nov-23 16:58N 36°00' W 005°12'715.2
2017-Nov-23 16:30N 35°59' W 005°21'713.9
2017-Nov-23 16:00N 35°57' W 005°29'6613.0
2017-Nov-23 10:56N 35°55' W 006°50'713.8
2017-Nov-23 10:25N 35°57' W 006°58'613.7
2017-Nov-23 10:00N 35°58' W 007°05'2113.6
2017-Nov-23 08:28N 36°04' W 007°30'713.6
2017-Nov-23 07:59N 36°06' W 007°38'713.7
2017-Nov-23 07:30N 36°08' W 007°45'713.9
2017-Nov-23 07:00N 36°10' W 007°54'1413.8
2017-Nov-23 06:01N 36°14' W 008°10'113.7
2017-Nov-23 05:57N 36°14' W 008°11'1813.9
2017-Nov-23 04:41N 36°19' W 008°32'313.8
2017-Nov-23 04:30N 36°20' W 008°35'913.7
2017-Nov-23 03:49N 36°22' W 008°46'413.9
2017-Nov-23 03:30N 36°23' W 008°51'713.8
2017-Nov-23 03:00N 36°25' W 008°60'713.4
2017-Nov-23 02:29N 36°27' W 009°08'713.2
2017-Nov-23 01:59N 36°29' W 009°16'1012.9
2017-Nov-23 01:15N 36°34' W 009°26'313.2
2017-Nov-23 01:00N 36°37' W 009°28'713.0
2017-Nov-23 00:29N 36°42' W 009°34'1212.6
2017-Nov-22 23:30N 36°53' W 009°40'1013.1
2017-Nov-22 22:45N 37°03' W 009°42'613.0
2017-Nov-22 22:17N 37°07' W 009°37'413.0
2017-Nov-22 22:00N 37°10' W 009°34'813.3
2017-Nov-22 21:23N 37°17' W 009°28'913.4
2017-Nov-22 20:44N 37°23' W 009°20'312.9
2017-Nov-22 20:30N 37°25' W 009°18'612.8
2017-Nov-22 20:00N 37°30' W 009°13'713.6
2017-Nov-22 19:30N 37°36' W 009°07'  
2017-Nov-15 06:31N 28°36' W 014°47'013.4
2017-Nov-15 06:30N 28°36' W 014°47'713.4
2017-Nov-15 06:00N 28°30' W 014°48'713.0
2017-Nov-15 05:30N 28°23' W 014°48'612.4
2017-Nov-15 05:00N 28°17' W 014°51'612.8
2017-Nov-15 04:30N 28°11' W 014°53'612.9
2017-Nov-15 04:00N 28°05' W 014°55'612.8
2017-Nov-15 03:30N 27°59' W 014°58'612.9
2017-Nov-15 03:00N 27°53' W 015°00'612.8
2017-Nov-15 02:30N 27°47' W 015°02'613.0
2017-Nov-15 02:00N 27°41' W 015°05'713.0
2017-Nov-15 01:29N 27°34' W 015°07'  

Dump ship's entire track history